sensor_id;sensor_type;location;lat;lon;timestamp;temperature;humidity
78647;DHT22;67961;43.460;3.762;2023-07-30T00:01:14;24.20;84.20
78647;DHT22;67961;43.460;3.762;2023-07-30T00:03:40;24.20;84.10
78647;DHT22;67961;43.460;3.762;2023-07-30T00:06:05;24.20;84.10
78647;DHT22;67961;43.460;3.762;2023-07-30T00:08:31;24.20;84.00
78647;DHT22;67961;43.460;3.762;2023-07-30T00:10:57;24.20;83.70
78647;DHT22;67961;43.460;3.762;2023-07-30T00:13:24;24.10;83.70
78647;DHT22;67961;43.460;3.762;2023-07-30T00:15:49;24.00;83.60
78647;DHT22;67961;43.460;3.762;2023-07-30T00:18:15;24.00;83.70
78647;DHT22;67961;43.460;3.762;2023-07-30T00:20:41;24.00;83.80
78647;DHT22;67961;43.460;3.762;2023-07-30T00:23:07;23.90;84.10
78647;DHT22;67961;43.460;3.762;2023-07-30T00:25:32;23.90;84.50
78647;DHT22;67961;43.460;3.762;2023-07-30T00:27:58;23.90;85.10
78647;DHT22;67961;43.460;3.762;2023-07-30T00:30:24;24.00;85.20
78647;DHT22;67961;43.460;3.762;2023-07-30T00:32:49;24.00;84.90
78647;DHT22;67961;43.460;3.762;2023-07-30T00:35:15;24.00;85.30
78647;DHT22;67961;43.460;3.762;2023-07-30T00:37:40;24.00;85.20
78647;DHT22;67961;43.460;3.762;2023-07-30T00:40:06;24.00;85.00
78647;DHT22;67961;43.460;3.762;2023-07-30T00:42:32;24.00;84.80
78647;DHT22;67961;43.460;3.762;2023-07-30T00:44:58;24.00;84.30
78647;DHT22;67961;43.460;3.762;2023-07-30T00:47:26;23.90;83.00
78647;DHT22;67961;43.460;3.762;2023-07-30T00:49:53;23.70;80.90
78647;DHT22;67961;43.460;3.762;2023-07-30T00:52:20;23.60;79.50
78647;DHT22;67961;43.460;3.762;2023-07-30T00:54:49;23.60;76.70
78647;DHT22;67961;43.460;3.762;2023-07-30T00:57:18;23.80;75.20
78647;DHT22;67961;43.460;3.762;2023-07-30T00:59:45;23.80;73.70
78647;DHT22;67961;43.460;3.762;2023-07-30T01:02:11;23.90;72.80
78647;DHT22;67961;43.460;3.762;2023-07-30T01:04:37;23.90;71.30
78647;DHT22;67961;43.460;3.762;2023-07-30T01:07:05;23.90;70.20
78647;DHT22;67961;43.460;3.762;2023-07-30T01:09:31;23.90;69.50
78647;DHT22;67961;43.460;3.762;2023-07-30T01:11:58;24.00;68.70
78647;DHT22;67961;43.460;3.762;2023-07-30T01:14:25;24.00;69.00
78647;DHT22;67961;43.460;3.762;2023-07-30T01:16:52;24.00;67.90
78647;DHT22;67961;43.460;3.762;2023-07-30T01:19:18;24.00;67.40
78647;DHT22;67961;43.460;3.762;2023-07-30T01:21:44;24.00;67.90
78647;DHT22;67961;43.460;3.762;2023-07-30T01:24:10;24.00;67.50
78647;DHT22;67961;43.460;3.762;2023-07-30T01:26:47;24.10;65.90
78647;DHT22;67961;43.460;3.762;2023-07-30T01:29:22;24.10;65.70
78647;DHT22;67961;43.460;3.762;2023-07-30T01:31:53;24.20;65.10
78647;DHT22;67961;43.460;3.762;2023-07-30T01:34:21;24.20;64.50
78647;DHT22;67961;43.460;3.762;2023-07-30T01:36:47;24.20;64.90
78647;DHT22;67961;43.460;3.762;2023-07-30T01:39:14;24.20;64.40
78647;DHT22;67961;43.460;3.762;2023-07-30T01:41:40;24.20;64.90
78647;DHT22;67961;43.460;3.762;2023-07-30T01:44:06;24.10;64.10
78647;DHT22;67961;43.460;3.762;2023-07-30T01:46:32;24.20;63.80
78647;DHT22;67961;43.460;3.762;2023-07-30T01:48:58;24.20;63.90
78647;DHT22;67961;43.460;3.762;2023-07-30T01:51:23;24.20;63.90
78647;DHT22;67961;43.460;3.762;2023-07-30T01:53:49;24.20;64.20
78647;DHT22;67961;43.460;3.762;2023-07-30T01:56:14;24.20;64.50
78647;DHT22;67961;43.460;3.762;2023-07-30T01:58:40;24.10;64.20
78647;DHT22;67961;43.460;3.762;2023-07-30T02:01:06;24.10;64.00
78647;DHT22;67961;43.460;3.762;2023-07-30T02:03:31;24.10;63.50
78647;DHT22;67961;43.460;3.762;2023-07-30T02:05:57;24.20;63.60
78647;DHT22;67961;43.460;3.762;2023-07-30T02:08:22;24.20;63.40
78647;DHT22;67961;43.460;3.762;2023-07-30T02:10:58;24.20;63.70
78647;DHT22;67961;43.460;3.762;2023-07-30T02:13:24;24.20;63.80
78647;DHT22;67961;43.460;3.762;2023-07-30T02:15:50;24.10;63.40
78647;DHT22;67961;43.460;3.762;2023-07-30T02:18:16;24.10;63.70
78647;DHT22;67961;43.460;3.762;2023-07-30T02:20:42;24.00;63.70
78647;DHT22;67961;43.460;3.762;2023-07-30T02:23:08;24.00;63.80
78647;DHT22;67961;43.460;3.762;2023-07-30T02:25:34;24.00;63.90
78647;DHT22;67961;43.460;3.762;2023-07-30T02:28:00;24.00;63.90
78647;DHT22;67961;43.460;3.762;2023-07-30T02:30:27;24.00;64.20
78647;DHT22;67961;43.460;3.762;2023-07-30T02:32:52;24.00;64.10
78647;DHT22;67961;43.460;3.762;2023-07-30T02:35:18;24.00;64.30
78647;DHT22;67961;43.460;3.762;2023-07-30T02:37:44;23.90;64.50
78647;DHT22;67961;43.460;3.762;2023-07-30T02:40:10;23.90;64.50
78647;DHT22;67961;43.460;3.762;2023-07-30T02:42:36;23.90;64.60
78647;DHT22;67961;43.460;3.762;2023-07-30T02:45:01;23.90;64.70
78647;DHT22;67961;43.460;3.762;2023-07-30T02:47:27;23.90;65.00
78647;DHT22;67961;43.460;3.762;2023-07-30T02:49:53;23.80;65.10
78647;DHT22;67961;43.460;3.762;2023-07-30T02:52:18;23.80;64.90
78647;DHT22;67961;43.460;3.762;2023-07-30T02:54:44;23.80;65.10
78647;DHT22;67961;43.460;3.762;2023-07-30T02:57:10;23.80;64.90
78647;DHT22;67961;43.460;3.762;2023-07-30T02:59:36;23.80;64.90
78647;DHT22;67961;43.460;3.762;2023-07-30T03:02:03;23.90;64.60
78647;DHT22;67961;43.460;3.762;2023-07-30T03:04:31;23.90;64.50
78647;DHT22;67961;43.460;3.762;2023-07-30T03:06:56;23.90;65.30
78647;DHT22;67961;43.460;3.762;2023-07-30T03:09:22;23.90;64.70
78647;DHT22;67961;43.460;3.762;2023-07-30T03:11:49;23.90;64.30
78647;DHT22;67961;43.460;3.762;2023-07-30T03:14:15;23.90;64.70
78647;DHT22;67961;43.460;3.762;2023-07-30T03:16:40;23.90;65.00
78647;DHT22;67961;43.460;3.762;2023-07-30T03:19:06;23.90;64.80
78647;DHT22;67961;43.460;3.762;2023-07-30T03:21:32;23.90;64.70
78647;DHT22;67961;43.460;3.762;2023-07-30T03:23:57;24.00;64.70
78647;DHT22;67961;43.460;3.762;2023-07-30T03:26:23;24.00;65.00
78647;DHT22;67961;43.460;3.762;2023-07-30T03:28:48;24.00;65.00
78647;DHT22;67961;43.460;3.762;2023-07-30T03:31:14;24.00;65.50
78647;DHT22;67961;43.460;3.762;2023-07-30T03:33:40;24.00;65.20
78647;DHT22;67961;43.460;3.762;2023-07-30T03:36:10;24.00;64.80
78647;DHT22;67961;43.460;3.762;2023-07-30T03:38:36;24.00;64.60
78647;DHT22;67961;43.460;3.762;2023-07-30T03:41:04;24.00;64.70
78647;DHT22;67961;43.460;3.762;2023-07-30T03:43:29;23.90;65.00
78647;DHT22;67961;43.460;3.762;2023-07-30T03:45:55;23.90;65.20
78647;DHT22;67961;43.460;3.762;2023-07-30T03:48:20;23.80;65.30
78647;DHT22;67961;43.460;3.762;2023-07-30T03:50:46;23.90;65.10
78647;DHT22;67961;43.460;3.762;2023-07-30T03:53:12;23.90;65.30
78647;DHT22;67961;43.460;3.762;2023-07-30T03:55:37;23.90;65.50
78647;DHT22;67961;43.460;3.762;2023-07-30T03:58:03;23.90;65.50
78647;DHT22;67961;43.460;3.762;2023-07-30T04:00:29;23.90;65.10
78647;DHT22;67961;43.460;3.762;2023-07-30T04:02:54;23.90;65.20
78647;DHT22;67961;43.460;3.762;2023-07-30T04:05:20;23.90;65.10
78647;DHT22;67961;43.460;3.762;2023-07-30T04:07:46;23.80;65.30
78647;DHT22;67961;43.460;3.762;2023-07-30T04:10:11;23.80;65.20
78647;DHT22;67961;43.460;3.762;2023-07-30T04:12:37;23.90;65.10
78647;DHT22;67961;43.460;3.762;2023-07-30T04:15:03;23.90;65.10
78647;DHT22;67961;43.460;3.762;2023-07-30T04:17:29;23.80;65.00
78647;DHT22;67961;43.460;3.762;2023-07-30T04:19:54;23.80;65.30
78647;DHT22;67961;43.460;3.762;2023-07-30T04:22:21;23.80;65.30
78647;DHT22;67961;43.460;3.762;2023-07-30T04:24:46;23.80;65.90
78647;DHT22;67961;43.460;3.762;2023-07-30T04:27:12;23.80;65.60
78647;DHT22;67961;43.460;3.762;2023-07-30T04:29:38;23.80;65.70
78647;DHT22;67961;43.460;3.762;2023-07-30T04:32:04;23.80;65.60
78647;DHT22;67961;43.460;3.762;2023-07-30T04:34:29;23.80;65.30
78647;DHT22;67961;43.460;3.762;2023-07-30T04:36:55;23.80;65.40
78647;DHT22;67961;43.460;3.762;2023-07-30T04:39:20;23.80;65.50
78647;DHT22;67961;43.460;3.762;2023-07-30T04:41:46;23.80;65.40
78647;DHT22;67961;43.460;3.762;2023-07-30T04:44:12;23.80;65.80
78647;DHT22;67961;43.460;3.762;2023-07-30T04:46:37;23.80;65.70
78647;DHT22;67961;43.460;3.762;2023-07-30T04:49:03;23.80;65.70
78647;DHT22;67961;43.460;3.762;2023-07-30T04:51:29;23.70;65.60
78647;DHT22;67961;43.460;3.762;2023-07-30T04:53:55;23.80;66.00
78647;DHT22;67961;43.460;3.762;2023-07-30T04:56:21;23.80;65.50
78647;DHT22;67961;43.460;3.762;2023-07-30T04:58:46;23.80;65.40
78647;DHT22;67961;43.460;3.762;2023-07-30T05:01:12;23.80;65.40
78647;DHT22;67961;43.460;3.762;2023-07-30T05:03:38;23.80;65.30
78647;DHT22;67961;43.460;3.762;2023-07-30T05:06:03;23.90;65.50
78647;DHT22;67961;43.460;3.762;2023-07-30T05:08:29;23.90;65.10
78647;DHT22;67961;43.460;3.762;2023-07-30T05:10:54;23.90;64.90
78647;DHT22;67961;43.460;3.762;2023-07-30T05:13:20;23.90;64.90
78647;DHT22;67961;43.460;3.762;2023-07-30T05:15:46;23.90;64.40
78647;DHT22;67961;43.460;3.762;2023-07-30T05:18:11;23.90;64.50
78647;DHT22;67961;43.460;3.762;2023-07-30T05:20:38;23.90;64.80
78647;DHT22;67961;43.460;3.762;2023-07-30T05:23:04;23.90;64.70
78647;DHT22;67961;43.460;3.762;2023-07-30T05:25:32;23.90;64.60
78647;DHT22;67961;43.460;3.762;2023-07-30T05:27:57;23.90;64.60
78647;DHT22;67961;43.460;3.762;2023-07-30T05:30:23;23.90;64.50
78647;DHT22;67961;43.460;3.762;2023-07-30T05:32:49;23.90;64.70
78647;DHT22;67961;43.460;3.762;2023-07-30T05:35:14;23.90;64.60
78647;DHT22;67961;43.460;3.762;2023-07-30T05:37:40;23.90;64.60
78647;DHT22;67961;43.460;3.762;2023-07-30T05:40:06;23.90;64.70
78647;DHT22;67961;43.460;3.762;2023-07-30T05:42:32;23.80;64.60
78647;DHT22;67961;43.460;3.762;2023-07-30T05:44:58;23.90;64.50
78647;DHT22;67961;43.460;3.762;2023-07-30T05:47:23;23.90;64.30
78647;DHT22;67961;43.460;3.762;2023-07-30T05:49:49;23.90;64.40
78647;DHT22;67961;43.460;3.762;2023-07-30T05:52:15;23.90;64.00
78647;DHT22;67961;43.460;3.762;2023-07-30T05:54:40;23.90;64.20
78647;DHT22;67961;43.460;3.762;2023-07-30T05:57:06;23.90;64.10
78647;DHT22;67961;43.460;3.762;2023-07-30T05:59:32;24.00;64.50
78647;DHT22;67961;43.460;3.762;2023-07-30T06:02:02;23.90;64.00
78647;DHT22;67961;43.460;3.762;2023-07-30T06:04:28;24.00;63.60
78647;DHT22;67961;43.460;3.762;2023-07-30T06:06:54;23.90;63.80
78647;DHT22;67961;43.460;3.762;2023-07-30T06:09:19;23.90;63.60
78647;DHT22;67961;43.460;3.762;2023-07-30T06:11:45;23.90;63.80
78647;DHT22;67961;43.460;3.762;2023-07-30T06:14:11;23.90;63.40
78647;DHT22;67961;43.460;3.762;2023-07-30T06:16:36;24.00;63.30
78647;DHT22;67961;43.460;3.762;2023-07-30T06:19:02;24.00;63.00
78647;DHT22;67961;43.460;3.762;2023-07-30T06:21:27;24.00;63.20
78647;DHT22;67961;43.460;3.762;2023-07-30T06:23:53;24.00;62.70
78647;DHT22;67961;43.460;3.762;2023-07-30T06:26:19;24.00;62.80
78647;DHT22;67961;43.460;3.762;2023-07-30T06:28:44;24.00;62.90
78647;DHT22;67961;43.460;3.762;2023-07-30T06:31:10;24.10;62.70
78647;DHT22;67961;43.460;3.762;2023-07-30T06:33:36;24.10;62.20
78647;DHT22;67961;43.460;3.762;2023-07-30T06:36:03;24.00;62.00
78647;DHT22;67961;43.460;3.762;2023-07-30T06:38:29;24.00;61.70
78647;DHT22;67961;43.460;3.762;2023-07-30T06:40:55;24.00;62.00
78647;DHT22;67961;43.460;3.762;2023-07-30T06:43:23;24.00;61.60
78647;DHT22;67961;43.460;3.762;2023-07-30T06:45:48;24.00;61.50
78647;DHT22;67961;43.460;3.762;2023-07-30T06:48:14;24.00;61.80
78647;DHT22;67961;43.460;3.762;2023-07-30T06:50:41;24.00;61.50
78647;DHT22;67961;43.460;3.762;2023-07-30T06:53:07;24.00;61.00
78647;DHT22;67961;43.460;3.762;2023-07-30T06:55:33;24.00;61.40
78647;DHT22;67961;43.460;3.762;2023-07-30T06:57:59;24.00;61.40
78647;DHT22;67961;43.460;3.762;2023-07-30T07:00:24;24.00;61.10
78647;DHT22;67961;43.460;3.762;2023-07-30T07:02:50;24.00;60.90
78647;DHT22;67961;43.460;3.762;2023-07-30T07:05:16;24.00;60.90
78647;DHT22;67961;43.460;3.762;2023-07-30T07:07:42;24.10;60.90
78647;DHT22;67961;43.460;3.762;2023-07-30T07:10:08;24.20;60.70
78647;DHT22;67961;43.460;3.762;2023-07-30T07:12:36;24.20;60.90
78647;DHT22;67961;43.460;3.762;2023-07-30T07:15:03;24.20;60.30
78647;DHT22;67961;43.460;3.762;2023-07-30T07:17:29;24.20;60.00
78647;DHT22;67961;43.460;3.762;2023-07-30T07:19:54;24.30;60.20
78647;DHT22;67961;43.460;3.762;2023-07-30T07:22:20;24.40;59.80
78647;DHT22;67961;43.460;3.762;2023-07-30T07:24:46;24.40;59.80
78647;DHT22;67961;43.460;3.762;2023-07-30T07:27:11;24.40;59.50
78647;DHT22;67961;43.460;3.762;2023-07-30T07:29:37;24.40;59.80
78647;DHT22;67961;43.460;3.762;2023-07-30T07:32:03;24.40;59.20
78647;DHT22;67961;43.460;3.762;2023-07-30T07:34:29;24.40;59.60
78647;DHT22;67961;43.460;3.762;2023-07-30T07:36:54;24.40;59.40
78647;DHT22;67961;43.460;3.762;2023-07-30T07:39:20;24.40;59.20
78647;DHT22;67961;43.460;3.762;2023-07-30T07:41:46;24.40;59.30
78647;DHT22;67961;43.460;3.762;2023-07-30T07:44:11;24.40;59.60
78647;DHT22;67961;43.460;3.762;2023-07-30T07:46:37;24.40;59.00
78647;DHT22;67961;43.460;3.762;2023-07-30T07:49:03;24.50;58.90
78647;DHT22;67961;43.460;3.762;2023-07-30T07:51:28;24.50;58.90
78647;DHT22;67961;43.460;3.762;2023-07-30T07:53:54;24.60;58.30
78647;DHT22;67961;43.460;3.762;2023-07-30T07:56:20;24.70;58.00
78647;DHT22;67961;43.460;3.762;2023-07-30T07:58:46;24.80;57.50
78647;DHT22;67961;43.460;3.762;2023-07-30T08:01:11;24.80;57.60
78647;DHT22;67961;43.460;3.762;2023-07-30T08:03:37;24.90;57.90
78647;DHT22;67961;43.460;3.762;2023-07-30T08:06:02;25.00;57.10
78647;DHT22;67961;43.460;3.762;2023-07-30T08:08:28;25.20;57.10
78647;DHT22;67961;43.460;3.762;2023-07-30T08:10:54;25.50;56.30
78647;DHT22;67961;43.460;3.762;2023-07-30T08:13:20;25.80;56.10
78647;DHT22;67961;43.460;3.762;2023-07-30T08:15:49;26.00;55.50
78647;DHT22;67961;43.460;3.762;2023-07-30T08:18:14;26.40;54.50
78647;DHT22;67961;43.460;3.762;2023-07-30T08:20:40;26.60;53.30
78647;DHT22;67961;43.460;3.762;2023-07-30T08:23:05;26.60;52.90
78647;DHT22;67961;43.460;3.762;2023-07-30T08:25:32;26.60;53.10
78647;DHT22;67961;43.460;3.762;2023-07-30T08:27:57;26.60;53.10
78647;DHT22;67961;43.460;3.762;2023-07-30T08:30:23;26.70;53.20
78647;DHT22;67961;43.460;3.762;2023-07-30T08:32:49;26.90;54.00
78647;DHT22;67961;43.460;3.762;2023-07-30T08:35:14;27.00;52.40
78647;DHT22;67961;43.460;3.762;2023-07-30T08:37:40;26.90;53.70
78647;DHT22;67961;43.460;3.762;2023-07-30T08:40:06;26.70;51.90
78647;DHT22;67961;43.460;3.762;2023-07-30T08:42:32;26.70;52.00
78647;DHT22;67961;43.460;3.762;2023-07-30T08:44:58;26.70;53.60
78647;DHT22;67961;43.460;3.762;2023-07-30T08:47:24;26.70;53.00
78647;DHT22;67961;43.460;3.762;2023-07-30T08:49:50;26.70;52.20
78647;DHT22;67961;43.460;3.762;2023-07-30T08:52:19;26.70;52.10
78647;DHT22;67961;43.460;3.762;2023-07-30T08:54:52;26.70;52.50
78647;DHT22;67961;43.460;3.762;2023-07-30T08:57:19;26.60;52.30
78647;DHT22;67961;43.460;3.762;2023-07-30T08:59:54;26.50;53.20
78647;DHT22;67961;43.460;3.762;2023-07-30T09:02:44;26.50;52.80
78647;DHT22;67961;43.460;3.762;2023-07-30T09:05:12;26.50;52.50
78647;DHT22;67961;43.460;3.762;2023-07-30T09:07:38;26.40;52.20
78647;DHT22;67961;43.460;3.762;2023-07-30T09:10:04;26.40;51.70
78647;DHT22;67961;43.460;3.762;2023-07-30T09:12:30;26.40;51.60
78647;DHT22;67961;43.460;3.762;2023-07-30T09:14:57;26.40;52.00
78647;DHT22;67961;43.460;3.762;2023-07-30T09:17:22;26.40;51.90
78647;DHT22;67961;43.460;3.762;2023-07-30T09:19:48;26.40;51.80
78647;DHT22;67961;43.460;3.762;2023-07-30T09:22:30;26.40;51.70
78647;DHT22;67961;43.460;3.762;2023-07-30T09:24:57;26.40;51.60
78647;DHT22;67961;43.460;3.762;2023-07-30T09:27:24;26.50;51.40
78647;DHT22;67961;43.460;3.762;2023-07-30T09:29:55;26.60;51.00
78647;DHT22;67961;43.460;3.762;2023-07-30T09:32:29;26.60;51.10
78647;DHT22;67961;43.460;3.762;2023-07-30T09:35:12;26.70;50.30
78647;DHT22;67961;43.460;3.762;2023-07-30T09:37:39;26.90;50.00
78647;DHT22;67961;43.460;3.762;2023-07-30T09:40:07;27.00;49.30
78647;DHT22;67961;43.460;3.762;2023-07-30T09:42:35;27.10;48.90
78647;DHT22;67961;43.460;3.762;2023-07-30T09:45:03;27.30;48.80
78647;DHT22;67961;43.460;3.762;2023-07-30T09:47:32;27.50;48.30
78647;DHT22;67961;43.460;3.762;2023-07-30T09:49:59;27.80;47.90
78647;DHT22;67961;43.460;3.762;2023-07-30T09:52:25;28.60;47.20
78647;DHT22;67961;43.460;3.762;2023-07-30T09:54:57;29.40;46.40
78647;DHT22;67961;43.460;3.762;2023-07-30T09:57:25;30.00;44.50
78647;DHT22;67961;43.460;3.762;2023-07-30T09:59:50;30.60;43.80
78647;DHT22;67961;43.460;3.762;2023-07-30T10:02:17;31.00;44.00
78647;DHT22;67961;43.460;3.762;2023-07-30T10:04:49;31.40;43.00
78647;DHT22;67961;43.460;3.762;2023-07-30T10:07:20;31.50;42.60
78647;DHT22;67961;43.460;3.762;2023-07-30T10:09:50;31.60;42.60
78647;DHT22;67961;43.460;3.762;2023-07-30T10:12:25;31.80;42.10
78647;DHT22;67961;43.460;3.762;2023-07-30T10:14:53;32.00;42.70
78647;DHT22;67961;43.460;3.762;2023-07-30T10:17:19;32.20;41.20
78647;DHT22;67961;43.460;3.762;2023-07-30T10:19:49;32.10;42.40
78647;DHT22;67961;43.460;3.762;2023-07-30T10:24:58;32.40;41.50
78647;DHT22;67961;43.460;3.762;2023-07-30T10:27:26;32.40;41.20
78647;DHT22;67961;43.460;3.762;2023-07-30T10:30:14;32.50;41.00
78647;DHT22;67961;43.460;3.762;2023-07-30T10:35:52;32.80;40.70
78647;DHT22;67961;43.460;3.762;2023-07-30T10:38:28;33.00;40.50
78647;DHT22;67961;43.460;3.762;2023-07-30T10:41:06;33.10;41.00
78647;DHT22;67961;43.460;3.762;2023-07-30T10:43:40;33.20;38.80
78647;DHT22;67961;43.460;3.762;2023-07-30T10:46:08;33.20;38.00
78647;DHT22;67961;43.460;3.762;2023-07-30T10:48:52;33.30;39.10
78647;DHT22;67961;43.460;3.762;2023-07-30T10:51:19;33.60;38.80
78647;DHT22;67961;43.460;3.762;2023-07-30T10:53:47;33.40;39.10
78647;DHT22;67961;43.460;3.762;2023-07-30T10:56:13;33.30;39.40
78647;DHT22;67961;43.460;3.762;2023-07-30T10:58:39;33.30;39.30
78647;DHT22;67961;43.460;3.762;2023-07-30T11:01:06;33.00;39.70
78647;DHT22;67961;43.460;3.762;2023-07-30T11:03:33;32.90;39.90
78647;DHT22;67961;43.460;3.762;2023-07-30T11:06:02;33.10;39.50
78647;DHT22;67961;43.460;3.762;2023-07-30T11:08:39;33.30;38.80
78647;DHT22;67961;43.460;3.762;2023-07-30T11:11:07;33.20;39.00
78647;DHT22;67961;43.460;3.762;2023-07-30T11:13:37;33.00;39.70
78647;DHT22;67961;43.460;3.762;2023-07-30T11:16:10;32.80;38.60
78647;DHT22;67961;43.460;3.762;2023-07-30T11:18:45;32.50;38.20
78647;DHT22;67961;43.460;3.762;2023-07-30T11:21:16;32.20;38.70
78647;DHT22;67961;43.460;3.762;2023-07-30T11:23:43;32.20;39.00
78647;DHT22;67961;43.460;3.762;2023-07-30T11:26:16;32.30;38.60
78647;DHT22;67961;43.460;3.762;2023-07-30T11:28:42;32.50;38.70
78647;DHT22;67961;43.460;3.762;2023-07-30T11:31:12;32.50;37.90
78647;DHT22;67961;43.460;3.762;2023-07-30T11:33:45;32.40;37.80
78647;DHT22;67961;43.460;3.762;2023-07-30T11:36:22;32.30;37.70
78647;DHT22;67961;43.460;3.762;2023-07-30T11:38:51;32.20;37.80
78647;DHT22;67961;43.460;3.762;2023-07-30T11:41:20;32.20;38.40
78647;DHT22;67961;43.460;3.762;2023-07-30T11:43:50;32.10;38.50
78647;DHT22;67961;43.460;3.762;2023-07-30T11:46:18;32.30;38.60
78647;DHT22;67961;43.460;3.762;2023-07-30T11:48:49;32.50;38.50
78647;DHT22;67961;43.460;3.762;2023-07-30T11:51:23;32.40;39.40
78647;DHT22;67961;43.460;3.762;2023-07-30T11:53:57;32.50;37.90
78647;DHT22;67961;43.460;3.762;2023-07-30T11:56:28;32.50;38.90
78647;DHT22;67961;43.460;3.762;2023-07-30T11:59:05;32.70;37.50
78647;DHT22;67961;43.460;3.762;2023-07-30T12:01:34;32.60;38.30
78647;DHT22;67961;43.460;3.762;2023-07-30T12:04:04;32.60;37.40
78647;DHT22;67961;43.460;3.762;2023-07-30T12:06:45;32.50;37.10
78647;DHT22;67961;43.460;3.762;2023-07-30T12:09:15;32.40;37.80
78647;DHT22;67961;43.460;3.762;2023-07-30T12:11:53;32.50;36.60
78647;DHT22;67961;43.460;3.762;2023-07-30T12:14:21;32.60;36.90
78647;DHT22;67961;43.460;3.762;2023-07-30T12:16:47;32.70;36.50
78647;DHT22;67961;43.460;3.762;2023-07-30T12:19:13;32.80;37.00
78647;DHT22;67961;43.460;3.762;2023-07-30T12:21:38;32.70;37.00
78647;DHT22;67961;43.460;3.762;2023-07-30T12:24:04;32.80;36.80
78647;DHT22;67961;43.460;3.762;2023-07-30T12:26:30;32.60;36.30
78647;DHT22;67961;43.460;3.762;2023-07-30T12:28:56;32.60;36.10
78647;DHT22;67961;43.460;3.762;2023-07-30T12:31:22;32.60;36.80
78647;DHT22;67961;43.460;3.762;2023-07-30T12:33:47;32.60;36.60
78647;DHT22;67961;43.460;3.762;2023-07-30T12:36:13;32.80;36.70
78647;DHT22;67961;43.460;3.762;2023-07-30T12:38:39;32.50;36.10
78647;DHT22;67961;43.460;3.762;2023-07-30T12:41:05;32.00;37.70
78647;DHT22;67961;43.460;3.762;2023-07-30T12:43:31;31.90;36.90
78647;DHT22;67961;43.460;3.762;2023-07-30T12:45:56;31.70;37.00
78647;DHT22;67961;43.460;3.762;2023-07-30T12:48:22;31.70;37.90
78647;DHT22;67961;43.460;3.762;2023-07-30T12:50:48;31.60;37.90
78647;DHT22;67961;43.460;3.762;2023-07-30T12:53:13;31.60;37.70
78647;DHT22;67961;43.460;3.762;2023-07-30T12:55:39;31.80;37.70
78647;DHT22;67961;43.460;3.762;2023-07-30T12:58:05;31.90;37.60
78647;DHT22;67961;43.460;3.762;2023-07-30T13:00:32;31.90;37.40
78647;DHT22;67961;43.460;3.762;2023-07-30T13:02:58;32.00;37.40
78647;DHT22;67961;43.460;3.762;2023-07-30T13:05:24;32.00;37.50
78647;DHT22;67961;43.460;3.762;2023-07-30T13:07:49;32.00;36.90
78647;DHT22;67961;43.460;3.762;2023-07-30T13:10:15;31.90;37.00
78647;DHT22;67961;43.460;3.762;2023-07-30T13:12:41;32.00;37.40
78647;DHT22;67961;43.460;3.762;2023-07-30T13:15:07;32.00;36.90
78647;DHT22;67961;43.460;3.762;2023-07-30T13:17:33;32.00;36.90
78647;DHT22;67961;43.460;3.762;2023-07-30T13:19:58;32.00;37.30
78647;DHT22;67961;43.460;3.762;2023-07-30T13:22:25;32.00;37.60
78647;DHT22;67961;43.460;3.762;2023-07-30T13:24:51;32.00;37.20
78647;DHT22;67961;43.460;3.762;2023-07-30T13:27:17;31.90;37.10
78647;DHT22;67961;43.460;3.762;2023-07-30T13:29:43;31.90;37.50
78647;DHT22;67961;43.460;3.762;2023-07-30T13:32:08;31.90;37.70
78647;DHT22;67961;43.460;3.762;2023-07-30T13:34:34;31.80;37.50
78647;DHT22;67961;43.460;3.762;2023-07-30T13:37:03;31.70;37.60
78647;DHT22;67961;43.460;3.762;2023-07-30T13:39:29;31.90;37.30
78647;DHT22;67961;43.460;3.762;2023-07-30T13:41:54;31.80;37.40
78647;DHT22;67961;43.460;3.762;2023-07-30T13:44:20;31.60;38.00
78647;DHT22;67961;43.460;3.762;2023-07-30T13:46:46;31.40;37.60
78647;DHT22;67961;43.460;3.762;2023-07-30T13:49:11;31.40;38.00
78647;DHT22;67961;43.460;3.762;2023-07-30T13:51:37;31.40;38.10
78647;DHT22;67961;43.460;3.762;2023-07-30T13:54:03;31.40;37.80
78647;DHT22;67961;43.460;3.762;2023-07-30T13:56:29;31.50;38.30
78647;DHT22;67961;43.460;3.762;2023-07-30T13:58:55;31.40;37.80
78647;DHT22;67961;43.460;3.762;2023-07-30T14:01:21;31.40;37.90
78647;DHT22;67961;43.460;3.762;2023-07-30T14:03:47;31.30;38.50
78647;DHT22;67961;43.460;3.762;2023-07-30T14:06:13;31.40;38.30
78647;DHT22;67961;43.460;3.762;2023-07-30T14:08:39;31.50;38.40
78647;DHT22;67961;43.460;3.762;2023-07-30T14:11:04;31.60;37.80
78647;DHT22;67961;43.460;3.762;2023-07-30T14:13:30;31.50;37.70
78647;DHT22;67961;43.460;3.762;2023-07-30T14:15:56;31.20;38.10
78647;DHT22;67961;43.460;3.762;2023-07-30T14:18:23;31.20;37.90
78647;DHT22;67961;43.460;3.762;2023-07-30T14:20:49;31.20;37.90
78647;DHT22;67961;43.460;3.762;2023-07-30T14:23:15;31.20;38.50
78647;DHT22;67961;43.460;3.762;2023-07-30T14:25:40;31.20;37.80
78647;DHT22;67961;43.460;3.762;2023-07-30T14:28:06;31.10;38.10
78647;DHT22;67961;43.460;3.762;2023-07-30T14:30:32;31.00;38.50
78647;DHT22;67961;43.460;3.762;2023-07-30T14:33:01;31.00;38.30
78647;DHT22;67961;43.460;3.762;2023-07-30T14:35:30;30.90;38.50
78647;DHT22;67961;43.460;3.762;2023-07-30T14:37:55;30.90;38.00
78647;DHT22;67961;43.460;3.762;2023-07-30T14:40:21;31.00;38.70
78647;DHT22;67961;43.460;3.762;2023-07-30T14:42:47;31.00;38.30
78647;DHT22;67961;43.460;3.762;2023-07-30T14:45:13;31.10;37.90
78647;DHT22;67961;43.460;3.762;2023-07-30T14:47:38;31.00;38.20
78647;DHT22;67961;43.460;3.762;2023-07-30T14:50:05;31.00;38.30
78647;DHT22;67961;43.460;3.762;2023-07-30T14:52:31;31.00;38.30
78647;DHT22;67961;43.460;3.762;2023-07-30T14:54:57;31.00;38.10
78647;DHT22;67961;43.460;3.762;2023-07-30T14:57:23;30.90;38.20
78647;DHT22;67961;43.460;3.762;2023-07-30T14:59:49;30.90;38.00
78647;DHT22;67961;43.460;3.762;2023-07-30T15:02:14;31.00;38.50
78647;DHT22;67961;43.460;3.762;2023-07-30T15:04:40;31.00;38.00
78647;DHT22;67961;43.460;3.762;2023-07-30T15:07:06;31.00;38.50
78647;DHT22;67961;43.460;3.762;2023-07-30T15:09:34;30.90;38.60
78647;DHT22;67961;43.460;3.762;2023-07-30T15:12:01;30.90;38.90
78647;DHT22;67961;43.460;3.762;2023-07-30T15:14:28;30.90;38.50
78647;DHT22;67961;43.460;3.762;2023-07-30T15:16:56;30.80;39.30
78647;DHT22;67961;43.460;3.762;2023-07-30T15:19:22;30.70;38.90
78647;DHT22;67961;43.460;3.762;2023-07-30T15:21:48;30.70;38.60
78647;DHT22;67961;43.460;3.762;2023-07-30T15:24:13;30.70;39.00
78647;DHT22;67961;43.460;3.762;2023-07-30T15:26:39;30.70;39.00
78647;DHT22;67961;43.460;3.762;2023-07-30T15:29:05;30.70;38.60
78647;DHT22;67961;43.460;3.762;2023-07-30T15:31:31;30.70;38.30
78647;DHT22;67961;43.460;3.762;2023-07-30T15:33:56;30.60;38.60